createdAt,value
2023-12-24T00:01:47.375Z,1.64
2023-12-24T00:04:00.224Z,1.61
2023-12-24T00:06:13.391Z,1.61
2023-12-24T00:08:27.439Z,1.62
2023-12-24T00:10:40.286Z,1.56
2023-12-24T00:12:53.336Z,1.54
2023-12-24T00:15:07.493Z,1.50
2023-12-24T00:17:20.418Z,1.48
2023-12-24T00:19:36.375Z,1.45
2023-12-24T00:21:50.664Z,1.41
2023-12-24T00:24:03.591Z,1.38
2023-12-24T00:26:16.400Z,1.37
2023-12-24T00:28:29.126Z,1.33
2023-12-24T00:30:42.066Z,1.27
2023-12-24T00:32:55.610Z,1.26
2023-12-24T00:35:08.596Z,1.25
2023-12-24T00:37:23.649Z,1.22
2023-12-24T00:39:36.440Z,1.22
2023-12-24T00:41:49.278Z,1.18
2023-12-24T00:44:02.163Z,1.18
2023-12-24T00:46:16.020Z,1.16
2023-12-24T00:48:28.860Z,1.17
2023-12-24T00:50:42.823Z,1.18
2023-12-24T00:52:55.622Z,1.16
2023-12-24T00:55:08.686Z,1.15
2023-12-24T00:57:21.424Z,1.15
2023-12-24T00:59:34.336Z,1.17
2023-12-24T01:01:47.181Z,1.17
2023-12-24T01:04:00.396Z,1.15
2023-12-24T01:06:13.542Z,1.15
2023-12-24T01:08:26.594Z,1.15
2023-12-24T01:10:39.582Z,1.15
2023-12-24T01:12:55.522Z,1.14
2023-12-24T01:15:08.663Z,1.13
2023-12-24T01:17:21.554Z,1.13
2023-12-24T01:19:34.506Z,1.12
2023-12-24T01:21:47.901Z,1.11
2023-12-24T01:24:00.845Z,1.09
2023-12-24T01:26:14.943Z,1.09
2023-12-24T01:28:28.774Z,1.07
2023-12-24T01:30:42.064Z,1.07
2023-12-24T01:32:55.155Z,1.02
2023-12-24T01:35:08.236Z,1.02
2023-12-24T01:37:21.010Z,1.03
2023-12-24T01:39:34.015Z,1.02
2023-12-24T01:41:48.168Z,1.03
2023-12-24T01:44:00.905Z,1.01
2023-12-24T01:46:17.757Z,1.03
2023-12-24T01:48:30.744Z,1.05
2023-12-24T01:50:46.705Z,1.03
2023-12-24T01:52:59.970Z,1.02
2023-12-24T01:55:12.786Z,1.03
2023-12-24T01:57:25.924Z,1.05
2023-12-24T01:59:39.173Z,1.05
2023-12-24T02:01:52.038Z,1.05
2023-12-24T02:04:05.519Z,1.04
2023-12-24T02:06:20.139Z,1.05
2023-12-24T02:08:33.063Z,1.03
2023-12-24T02:10:46.245Z,1.02
2023-12-24T02:12:59.001Z,1.03
2023-12-24T02:15:12.060Z,1.02
2023-12-24T02:17:25.583Z,1.04
2023-12-24T02:19:38.562Z,1.02
2023-12-24T02:21:51.420Z,1.03
2023-12-24T02:24:04.306Z,1.01
2023-12-24T02:26:41.187Z,1.03
2023-12-24T02:29:00.361Z,1.02
2023-12-24T02:31:16.455Z,1.03
2023-12-24T02:33:34.724Z,1.04
2023-12-24T02:35:50.187Z,1.03
2023-12-24T02:38:03.297Z,1.02
2023-12-24T02:40:16.114Z,1.02
2023-12-24T02:42:28.913Z,1.03
2023-12-24T02:44:42.380Z,1.04
2023-12-24T02:46:55.096Z,1.06
2023-12-24T02:49:07.976Z,1.09
2023-12-24T02:51:20.803Z,1.12
2023-12-24T02:53:33.569Z,1.14
2023-12-24T02:55:46.349Z,1.15
2023-12-24T02:57:59.329Z,1.13
2023-12-24T03:00:14.944Z,1.15
2023-12-24T03:02:29.109Z,1.15
2023-12-24T03:04:41.833Z,1.15
2023-12-24T03:06:54.595Z,1.17
2023-12-24T03:09:07.307Z,1.20
2023-12-24T03:11:20.121Z,1.23
2023-12-24T03:13:32.901Z,1.24
2023-12-24T03:15:45.866Z,1.24
2023-12-24T03:17:58.999Z,1.26
2023-12-24T03:20:12.253Z,1.27
2023-12-24T03:22:25.061Z,1.27
2023-12-24T03:24:38.378Z,1.28
2023-12-24T03:26:51.165Z,1.29
2023-12-24T03:29:03.997Z,1.32
2023-12-24T03:31:18.096Z,1.32
2023-12-24T03:33:31.221Z,1.32
2023-12-24T03:35:44.540Z,1.32
2023-12-24T03:37:57.275Z,1.31
2023-12-24T03:40:10.571Z,1.31
2023-12-24T03:42:23.293Z,1.32
2023-12-24T03:44:35.982Z,1.34
2023-12-24T03:46:48.789Z,1.35
2023-12-24T03:49:01.606Z,1.35
2023-12-24T03:51:16.065Z,1.35
2023-12-24T03:53:29.910Z,1.34
2023-12-24T03:55:42.630Z,1.37
2023-12-24T03:57:56.188Z,1.37
2023-12-24T04:00:09.589Z,1.35
2023-12-24T04:02:26.057Z,1.38
2023-12-24T04:04:39.015Z,1.38
2023-12-24T04:06:51.706Z,1.39
2023-12-24T04:09:05.623Z,1.40
2023-12-24T04:11:19.143Z,1.40
2023-12-24T04:13:31.905Z,1.41
2023-12-24T04:15:44.620Z,1.42
2023-12-24T04:17:57.555Z,1.43
2023-12-24T04:20:11.013Z,1.44
2023-12-24T04:22:23.929Z,1.42
2023-12-24T04:24:36.684Z,1.40
2023-12-24T04:26:49.400Z,1.37
2023-12-24T04:29:02.131Z,1.38
2023-12-24T04:31:14.983Z,1.40
2023-12-24T04:33:28.221Z,1.40
2023-12-24T04:35:41.221Z,1.40
2023-12-24T04:37:54.010Z,1.41
2023-12-24T04:40:07.675Z,1.41
2023-12-24T04:42:20.400Z,1.37
2023-12-24T04:44:33.201Z,1.34
2023-12-24T04:46:47.204Z,1.33
2023-12-24T04:49:00.023Z,1.32
2023-12-24T04:51:12.908Z,1.35
2023-12-24T04:53:25.983Z,1.37
2023-12-24T04:55:38.761Z,1.34
2023-12-24T04:57:51.480Z,1.33
2023-12-24T05:00:06.986Z,1.37
2023-12-24T05:02:19.826Z,1.41
2023-12-24T05:04:34.364Z,1.43
2023-12-24T05:06:47.361Z,1.44
2023-12-24T05:09:00.120Z,1.42
2023-12-24T05:11:13.025Z,1.40
2023-12-24T05:13:26.062Z,1.39
2023-12-24T05:15:38.922Z,1.38
2023-12-24T05:17:51.742Z,1.39
2023-12-24T05:20:05.109Z,1.39
2023-12-24T05:22:17.848Z,1.41
2023-12-24T05:24:30.693Z,1.40
2023-12-24T05:26:43.426Z,1.41
2023-12-24T05:28:56.194Z,1.38
2023-12-24T05:31:08.986Z,1.40
2023-12-24T05:33:21.846Z,1.41
2023-12-24T05:35:34.693Z,1.36
2023-12-24T05:37:48.028Z,1.36
2023-12-24T05:40:00.833Z,1.33
2023-12-24T05:42:13.736Z,1.30
2023-12-24T05:44:26.593Z,1.28
2023-12-24T05:46:39.438Z,1.27
2023-12-24T05:48:52.339Z,1.29
2023-12-24T05:51:05.186Z,1.30
2023-12-24T05:53:18.007Z,1.25
2023-12-24T05:55:30.779Z,1.22
2023-12-24T05:57:43.495Z,1.22
2023-12-24T05:59:57.019Z,1.22
2023-12-24T06:02:09.804Z,1.24
2023-12-24T06:04:22.555Z,1.28
2023-12-24T06:06:40.762Z,1.25
2023-12-24T06:08:53.534Z,1.21
2023-12-24T06:11:06.334Z,1.20
2023-12-24T06:13:19.064Z,1.21
2023-12-24T06:15:32.386Z,1.21
2023-12-24T06:17:45.281Z,1.24
2023-12-24T06:19:58.196Z,1.22
2023-12-24T06:22:10.943Z,1.23
2023-12-24T06:24:23.720Z,1.21
2023-12-24T06:26:36.490Z,1.19
2023-12-24T06:28:49.221Z,1.22
2023-12-24T06:31:02.003Z,1.21
2023-12-24T06:33:15.095Z,1.17
2023-12-24T06:35:28.706Z,1.19
2023-12-24T06:37:41.518Z,1.18
2023-12-24T06:39:54.285Z,1.17
2023-12-24T06:42:07.416Z,1.16
2023-12-24T06:44:20.309Z,1.16
2023-12-24T06:46:33.071Z,1.18
2023-12-24T06:48:45.935Z,1.18
2023-12-24T06:50:58.719Z,1.19
2023-12-24T06:53:11.559Z,1.20
2023-12-24T06:55:24.344Z,1.20
2023-12-24T06:57:37.050Z,1.19
2023-12-24T06:59:49.808Z,1.18
2023-12-24T07:02:02.628Z,1.17
2023-12-24T07:04:15.424Z,1.18
2023-12-24T07:06:28.277Z,1.18
2023-12-24T07:08:41.154Z,1.19
2023-12-24T07:10:53.908Z,1.19
2023-12-24T07:13:06.664Z,1.17
2023-12-24T07:15:20.047Z,1.15
2023-12-24T07:17:33.189Z,1.14
2023-12-24T07:19:46.041Z,1.15
2023-12-24T07:21:58.784Z,1.16
2023-12-24T07:24:13.139Z,1.19
2023-12-24T07:26:25.880Z,1.20
2023-12-24T07:28:38.714Z,1.20
2023-12-24T07:30:51.515Z,1.19
2023-12-24T07:33:04.712Z,1.18
2023-12-24T07:35:17.893Z,1.15
2023-12-24T07:37:30.740Z,1.18
2023-12-24T07:39:43.517Z,1.24
2023-12-24T07:41:57.021Z,1.30
2023-12-24T07:44:10.940Z,1.32
2023-12-24T07:46:23.704Z,1.30
2023-12-24T07:48:36.561Z,1.26
2023-12-24T07:50:49.424Z,1.23
2023-12-24T07:53:02.813Z,1.22
2023-12-24T07:55:15.582Z,1.23
2023-12-24T07:57:28.305Z,1.23
2023-12-24T07:59:41.753Z,1.25
2023-12-24T08:01:54.500Z,1.27
2023-12-24T08:04:07.418Z,1.27
2023-12-24T08:06:28.197Z,1.29
2023-12-24T08:08:42.326Z,1.30
2023-12-24T08:10:55.272Z,1.28
2023-12-24T08:13:13.920Z,1.25
2023-12-24T08:15:27.902Z,1.21
2023-12-24T08:17:43.535Z,1.23
2023-12-24T08:19:57.657Z,1.28
2023-12-24T08:22:12.591Z,1.30
2023-12-24T08:24:25.286Z,1.29
2023-12-24T08:26:38.131Z,1.28
2023-12-24T08:28:50.840Z,1.25
2023-12-24T08:31:03.678Z,1.25
2023-12-24T08:33:16.593Z,1.27
2023-12-24T08:35:29.470Z,1.31
2023-12-24T08:37:42.174Z,1.34
2023-12-24T08:39:54.937Z,1.34
2023-12-24T08:42:07.723Z,1.35
2023-12-24T08:44:20.460Z,1.36
2023-12-24T08:46:33.261Z,1.39
2023-12-24T08:48:46.179Z,1.39
2023-12-24T08:50:58.948Z,1.40
2023-12-24T08:53:12.353Z,1.43
2023-12-24T08:55:25.144Z,1.45
2023-12-24T08:57:38.127Z,1.47
2023-12-24T08:59:50.869Z,1.51
2023-12-24T09:02:03.614Z,1.53
2023-12-24T09:04:17.457Z,1.55
2023-12-24T09:06:30.216Z,1.56
2023-12-24T09:08:43.028Z,1.54
2023-12-24T09:10:55.742Z,1.53
2023-12-24T09:13:08.791Z,1.54
2023-12-24T09:15:21.808Z,1.56
2023-12-24T09:17:34.642Z,1.56
2023-12-24T09:19:47.582Z,1.56
2023-12-24T09:22:00.295Z,1.57
2023-12-24T09:24:13.094Z,1.56
2023-12-24T09:26:26.004Z,1.56
2023-12-24T09:28:38.857Z,1.61
2023-12-24T09:30:51.731Z,1.64
2023-12-24T09:33:04.918Z,1.66
2023-12-24T09:35:17.734Z,1.64
2023-12-24T09:37:32.307Z,1.66
2023-12-24T09:39:45.686Z,1.70
2023-12-24T09:41:58.536Z,1.74
2023-12-24T09:44:11.338Z,1.76
2023-12-24T09:46:24.839Z,1.81
2023-12-24T09:48:37.653Z,1.86
2023-12-24T09:50:50.517Z,1.91
2023-12-24T09:53:04.536Z,1.97
2023-12-24T09:55:17.341Z,2.06
2023-12-24T09:57:30.079Z,2.13
2023-12-24T09:59:42.989Z,2.17
2023-12-24T10:01:55.752Z,2.20
2023-12-24T10:04:08.659Z,2.25
2023-12-24T10:06:22.597Z,2.27
2023-12-24T10:08:39.916Z,2.28
2023-12-24T10:10:53.221Z,2.28
2023-12-24T10:13:06.783Z,2.29
2023-12-24T10:15:20.437Z,2.36
2023-12-24T10:17:37.300Z,2.41
2023-12-24T10:19:50.212Z,2.49
2023-12-24T10:22:10.072Z,2.55
2023-12-24T10:24:22.786Z,2.60
2023-12-24T10:26:35.545Z,2.63
2023-12-24T10:28:58.212Z,2.69
2023-12-24T10:31:14.504Z,2.74
2023-12-24T10:33:27.379Z,2.83
2023-12-24T10:35:40.267Z,2.91
2023-12-24T10:38:07.779Z,2.98
2023-12-24T10:40:20.515Z,3.03
2023-12-24T10:42:33.252Z,3.08
2023-12-24T10:44:46.830Z,3.21
2023-12-24T10:46:59.567Z,3.32
2023-12-24T10:49:12.281Z,3.42
2023-12-24T10:51:27.433Z,3.49
2023-12-24T10:53:42.890Z,3.55
2023-12-24T10:56:07.791Z,3.61
2023-12-24T10:58:31.605Z,3.65
2023-12-24T11:00:44.571Z,3.71
2023-12-24T11:02:57.859Z,3.80
2023-12-24T11:05:10.931Z,3.86
2023-12-24T11:07:35.680Z,3.92
2023-12-24T11:09:48.444Z,3.98
2023-12-24T11:12:01.314Z,4.07
2023-12-24T11:14:45.888Z,4.17
2023-12-24T11:16:58.760Z,4.26
2023-12-24T11:19:23.864Z,4.35
2023-12-24T11:22:06.713Z,4.43
2023-12-24T11:24:22.580Z,4.54
2023-12-24T11:26:35.365Z,4.65
2023-12-24T11:28:48.113Z,4.78
2023-12-24T11:31:00.816Z,4.91
2023-12-24T11:33:33.569Z,5.02
2023-12-24T11:35:53.482Z,5.08
2023-12-24T11:38:50.284Z,5.12
2023-12-24T11:41:08.156Z,5.15
2023-12-24T11:43:20.905Z,5.21
2023-12-24T11:45:33.830Z,5.26
2023-12-24T11:47:46.751Z,5.30
2023-12-24T11:50:00.549Z,5.34
2023-12-24T11:52:13.512Z,5.42
2023-12-24T11:54:26.429Z,5.53
2023-12-24T11:56:39.411Z,5.64
2023-12-24T11:58:52.238Z,5.73
2023-12-24T12:01:05.622Z,5.85
2023-12-24T12:03:19.412Z,5.98
2023-12-24T12:05:32.571Z,6.08
2023-12-24T12:07:45.317Z,6.18
2023-12-24T12:09:58.032Z,6.29
2023-12-24T12:12:10.750Z,6.40
2023-12-24T12:14:23.491Z,6.49
2023-12-24T12:16:36.402Z,6.53
2023-12-24T12:18:49.176Z,6.60
2023-12-24T12:21:01.940Z,6.61
2023-12-24T12:23:17.600Z,6.64
2023-12-24T12:25:30.515Z,6.65
2023-12-24T12:27:44.716Z,6.64
2023-12-24T12:29:58.561Z,6.63
2023-12-24T12:32:11.349Z,6.65
2023-12-24T12:34:24.846Z,6.70
2023-12-24T12:36:37.562Z,6.71
2023-12-24T12:38:50.321Z,6.74
2023-12-24T12:41:05.601Z,6.79
2023-12-24T12:43:19.553Z,6.84
2023-12-24T12:45:32.290Z,6.89
2023-12-24T12:47:45.270Z,6.95
2023-12-24T12:49:59.738Z,6.98
2023-12-24T12:52:12.865Z,7.01
2023-12-24T12:54:25.620Z,7.08
2023-12-24T12:56:45.912Z,7.13
2023-12-24T12:58:58.777Z,7.19
2023-12-24T13:01:11.510Z,7.27
2023-12-24T13:03:24.302Z,7.31
2023-12-24T13:05:37.457Z,7.36
2023-12-24T13:07:50.253Z,7.44
2023-12-24T13:10:03.089Z,7.48
2023-12-24T13:12:20.085Z,7.54
2023-12-24T13:14:36.642Z,7.57
2023-12-24T13:16:49.423Z,7.63
2023-12-24T13:19:19.070Z,7.69
2023-12-24T13:21:31.830Z,7.71
2023-12-24T13:23:49.029Z,7.75
2023-12-24T13:26:04.868Z,7.79
2023-12-24T13:28:19.016Z,7.83
2023-12-24T13:30:31.748Z,7.88
2023-12-24T13:32:44.774Z,7.96
2023-12-24T13:34:57.613Z,8.03
2023-12-24T13:37:10.401Z,8.07
2023-12-24T13:39:23.238Z,8.12
2023-12-24T13:41:36.545Z,8.15
2023-12-24T13:43:49.561Z,8.21
2023-12-24T13:46:02.257Z,8.29
2023-12-24T13:48:15.334Z,8.34
2023-12-24T13:50:28.193Z,8.38
2023-12-24T13:52:41.000Z,8.41
2023-12-24T13:54:53.731Z,8.47
2023-12-24T13:57:09.118Z,8.48
2023-12-24T13:59:21.819Z,8.51
2023-12-24T14:01:34.645Z,8.56
2023-12-24T14:03:47.519Z,8.60
2023-12-24T14:06:01.297Z,8.63
2023-12-24T14:08:14.296Z,8.70
2023-12-24T14:10:27.076Z,8.73
2023-12-24T14:12:40.705Z,8.79
2023-12-24T14:14:53.520Z,8.82
2023-12-24T14:17:06.561Z,8.84
2023-12-24T14:19:20.189Z,8.86
2023-12-24T14:21:35.541Z,8.87
2023-12-24T14:23:48.516Z,8.92
2023-12-24T14:26:01.267Z,8.96
2023-12-24T14:28:14.527Z,8.96
2023-12-24T14:30:27.335Z,8.97
2023-12-24T14:32:40.382Z,8.98
2023-12-24T14:34:53.808Z,9.02
2023-12-24T14:37:06.539Z,9.03
2023-12-24T14:39:19.460Z,9.03
2023-12-24T14:41:37.965Z,9.03
2023-12-24T14:43:50.705Z,9.07
2023-12-24T14:46:03.482Z,9.09
2023-12-24T14:48:16.383Z,9.08
2023-12-24T14:50:29.545Z,9.09
2023-12-24T14:52:42.284Z,9.11
2023-12-24T14:54:57.585Z,9.12
2023-12-24T14:57:10.863Z,9.13
2023-12-24T14:59:23.714Z,9.16
2023-12-24T15:01:36.429Z,9.20
2023-12-24T15:03:49.140Z,9.22
2023-12-24T15:06:02.020Z,9.23
2023-12-24T15:08:14.842Z,9.25
2023-12-24T15:10:27.556Z,9.27
2023-12-24T15:12:40.273Z,9.29
2023-12-24T15:14:53.204Z,9.31
2023-12-24T15:17:05.931Z,9.32
2023-12-24T15:19:18.725Z,9.35
2023-12-24T15:21:31.565Z,9.38
2023-12-24T15:23:44.773Z,9.39
2023-12-24T15:25:57.576Z,9.39
2023-12-24T15:28:10.344Z,9.41
2023-12-24T15:30:23.143Z,9.41
2023-12-24T15:32:36.053Z,9.42
2023-12-24T15:34:49.033Z,9.45
2023-12-24T15:37:02.864Z,9.49
2023-12-24T15:39:15.670Z,9.50
2023-12-24T15:41:28.388Z,9.51
2023-12-24T15:43:46.007Z,9.51
2023-12-24T15:45:58.841Z,9.53
2023-12-24T15:48:11.778Z,9.54
2023-12-24T15:50:25.703Z,9.55
2023-12-24T15:52:38.465Z,9.60
2023-12-24T15:54:51.185Z,9.64
2023-12-24T15:57:06.783Z,9.66
2023-12-24T15:59:19.915Z,9.69
2023-12-24T16:01:32.600Z,9.71
2023-12-24T16:03:46.060Z,9.72
2023-12-24T16:05:59.000Z,9.73
2023-12-24T16:08:11.847Z,9.75
2023-12-24T16:10:26.287Z,9.80
2023-12-24T16:12:39.357Z,9.80
2023-12-24T16:14:52.382Z,9.81
2023-12-24T16:17:05.372Z,9.82
2023-12-24T16:19:18.219Z,9.84
2023-12-24T16:21:32.650Z,9.85
2023-12-24T16:23:46.646Z,9.84
2023-12-24T16:25:59.460Z,9.85
2023-12-24T16:28:12.262Z,9.85
2023-12-24T16:30:25.033Z,9.84
2023-12-24T16:32:38.711Z,9.82
2023-12-24T16:34:51.613Z,9.82
2023-12-24T16:37:04.444Z,9.80
2023-12-24T16:39:19.284Z,9.80
2023-12-24T16:41:39.223Z,9.79
2023-12-24T16:43:52.156Z,9.77
2023-12-24T16:46:09.076Z,9.77
2023-12-24T16:48:22.516Z,9.77
2023-12-24T16:50:35.478Z,9.76
2023-12-24T16:52:48.951Z,9.77
2023-12-24T16:55:02.914Z,9.77
2023-12-24T16:57:15.892Z,9.78
2023-12-24T16:59:28.655Z,9.77
2023-12-24T17:01:45.753Z,9.79
2023-12-24T17:03:58.640Z,9.80
2023-12-24T17:06:13.612Z,9.82
2023-12-24T17:08:26.869Z,9.81
2023-12-24T17:10:39.840Z,9.82
2023-12-24T17:12:52.758Z,9.83
2023-12-24T17:15:06.509Z,9.83
2023-12-24T17:17:19.768Z,9.85
2023-12-24T17:19:32.544Z,9.87
2023-12-24T17:21:46.672Z,9.89
2023-12-24T17:23:59.833Z,9.89
2023-12-24T17:26:12.574Z,9.90
2023-12-24T17:28:25.277Z,9.93
2023-12-24T17:30:37.999Z,9.93
2023-12-24T17:32:51.032Z,9.93
2023-12-24T17:35:04.079Z,9.94
2023-12-24T17:37:16.810Z,9.98
2023-12-24T17:39:29.552Z,9.99
2023-12-24T17:41:42.994Z,9.99
2023-12-24T17:43:55.801Z,9.99
2023-12-24T17:46:08.485Z,9.99
2023-12-24T17:50:34.777Z,9.98
2023-12-24T17:52:47.524Z,9.97
2023-12-24T17:55:00.486Z,9.96
2023-12-24T17:57:13.840Z,9.96
2023-12-24T17:59:26.621Z,9.96
2023-12-24T18:01:39.414Z,9.94
2023-12-24T18:03:52.154Z,9.93
2023-12-24T18:06:05.397Z,9.94
2023-12-24T18:08:18.287Z,9.95
2023-12-24T18:10:31.045Z,9.94
2023-12-24T18:12:43.750Z,9.92
2023-12-24T18:14:56.486Z,9.90
2023-12-24T18:17:09.408Z,9.88
2023-12-24T18:19:22.260Z,9.85
2023-12-24T18:21:34.970Z,9.84
2023-12-24T18:23:47.832Z,9.83
2023-12-24T18:26:02.119Z,9.82
2023-12-24T18:28:15.904Z,9.82
2023-12-24T18:30:28.887Z,9.82
2023-12-24T18:32:41.734Z,9.80
2023-12-24T18:34:54.546Z,9.79
2023-12-24T18:37:07.706Z,9.78
2023-12-24T18:39:20.446Z,9.77
2023-12-24T18:41:33.293Z,9.76
2023-12-24T18:43:46.082Z,9.75
2023-12-24T18:46:00.618Z,9.75
2023-12-24T18:48:13.651Z,9.75
2023-12-24T18:50:26.504Z,9.77
2023-12-24T18:52:39.258Z,9.76
2023-12-24T18:54:51.990Z,9.76
2023-12-24T18:57:05.254Z,9.75
2023-12-24T18:59:18.052Z,9.76
2023-12-24T19:01:30.827Z,9.73
2023-12-24T19:03:43.722Z,9.73
2023-12-24T19:05:56.609Z,9.75
2023-12-24T19:08:09.469Z,9.75
2023-12-24T19:10:22.317Z,9.77
2023-12-24T19:12:36.391Z,9.79
2023-12-24T19:14:49.231Z,9.79
2023-12-24T19:17:02.102Z,9.81
2023-12-24T19:19:14.995Z,9.81
2023-12-24T19:21:28.151Z,9.81
2023-12-24T19:23:41.890Z,9.81
2023-12-24T19:25:54.730Z,9.81
2023-12-24T19:28:07.509Z,9.80
2023-12-24T19:30:20.354Z,9.80
2023-12-24T19:32:33.462Z,9.79
2023-12-24T19:34:47.011Z,9.79
2023-12-24T19:37:02.083Z,9.78
2023-12-24T19:39:14.998Z,9.77
2023-12-24T19:41:28.510Z,9.77
2023-12-24T19:43:41.303Z,9.77
2023-12-24T19:45:54.679Z,9.78
2023-12-24T19:48:08.486Z,9.80
2023-12-24T19:50:21.391Z,9.80
2023-12-24T19:52:39.663Z,9.78
2023-12-24T19:54:53.111Z,9.73
2023-12-24T19:57:05.930Z,9.68
2023-12-24T19:59:19.104Z,9.62
2023-12-24T20:01:42.049Z,9.53
2023-12-24T20:03:58.205Z,9.42
2023-12-24T20:06:11.866Z,9.38
2023-12-24T20:08:24.708Z,9.34
2023-12-24T20:10:37.476Z,9.29
2023-12-24T20:12:50.360Z,9.25
2023-12-24T20:15:03.956Z,9.21
2023-12-24T20:17:16.712Z,9.18
2023-12-24T20:19:29.600Z,9.12
2023-12-24T20:21:42.386Z,9.08
2023-12-24T20:23:55.215Z,9.09
2023-12-24T20:26:08.844Z,9.10
2023-12-24T20:28:21.613Z,9.08
2023-12-24T20:30:34.520Z,9.09
2023-12-24T20:32:47.477Z,9.07
2023-12-24T20:35:00.898Z,9.06
2023-12-24T20:37:13.818Z,9.05
2023-12-24T20:39:26.638Z,9.03
2023-12-24T20:41:46.027Z,9.04
2023-12-24T20:43:58.820Z,9.00
2023-12-24T20:46:11.632Z,8.96
2023-12-24T20:48:24.627Z,8.94
2023-12-24T20:50:38.184Z,8.90
2023-12-24T20:52:51.239Z,8.88
2023-12-24T20:55:04.557Z,8.87
2023-12-24T20:57:18.103Z,8.87
2023-12-24T20:59:31.149Z,8.86
2023-12-24T21:01:43.940Z,8.84
2023-12-24T21:03:57.036Z,8.83
2023-12-24T21:06:09.869Z,8.84
2023-12-24T21:08:24.123Z,8.85
2023-12-24T21:10:36.930Z,8.82
2023-12-24T21:12:51.091Z,8.84
2023-12-24T21:15:04.519Z,8.86
2023-12-24T21:17:17.803Z,8.85
2023-12-24T21:19:30.578Z,8.86
2023-12-24T21:21:43.340Z,8.86
2023-12-24T21:23:56.187Z,8.87
2023-12-24T21:26:09.107Z,8.88
2023-12-24T21:28:21.941Z,8.91
2023-12-24T21:30:34.686Z,8.91
2023-12-24T21:32:47.596Z,8.95
2023-12-24T21:35:00.650Z,8.95
2023-12-24T21:37:13.743Z,8.93
2023-12-24T21:39:26.493Z,8.92
2023-12-24T21:41:42.586Z,8.96
2023-12-24T21:43:55.700Z,8.99
2023-12-24T21:46:08.436Z,8.98
2023-12-24T21:48:23.205Z,9.00
2023-12-24T21:50:36.070Z,9.01
2023-12-24T21:52:48.867Z,9.06
2023-12-24T21:55:01.919Z,9.08
2023-12-24T21:57:14.618Z,9.15
2023-12-24T21:59:27.338Z,9.24
2023-12-24T22:01:40.188Z,9.32
2023-12-24T22:03:53.029Z,9.43
2023-12-24T22:06:05.943Z,9.56
2023-12-24T22:08:18.744Z,9.69
2023-12-24T22:10:31.539Z,9.79
2023-12-24T22:12:44.262Z,9.90
2023-12-24T22:14:57.068Z,10.03
2023-12-24T22:17:09.825Z,10.11
2023-12-24T22:19:22.850Z,10.18
2023-12-24T22:21:43.535Z,10.22
2023-12-24T22:23:56.399Z,10.26
2023-12-24T22:26:10.509Z,10.31
2023-12-24T22:28:23.204Z,10.35
2023-12-24T22:30:36.010Z,10.39
2023-12-24T22:32:48.817Z,10.45
2023-12-24T22:35:01.976Z,10.50
2023-12-24T22:37:14.896Z,10.54
2023-12-24T22:39:27.648Z,10.56
2023-12-24T22:41:40.787Z,10.60
2023-12-24T22:43:53.579Z,10.64
2023-12-24T22:46:07.993Z,10.67
2023-12-24T22:48:20.945Z,10.71
2023-12-24T22:50:33.824Z,10.76
2023-12-24T22:52:47.429Z,10.81
2023-12-24T22:55:00.199Z,10.85
2023-12-24T22:57:13.113Z,10.87
2023-12-24T22:59:26.030Z,10.90
2023-12-24T23:01:44.509Z,10.94
2023-12-24T23:03:58.599Z,10.99
2023-12-24T23:06:13.874Z,11.05
2023-12-24T23:08:26.841Z,11.09
2023-12-24T23:10:39.585Z,11.15
2023-12-24T23:12:52.405Z,11.17
2023-12-24T23:15:05.820Z,11.23
2023-12-24T23:17:18.582Z,11.30
2023-12-24T23:19:34.751Z,11.35
2023-12-24T23:21:47.619Z,11.36
2023-12-24T23:24:00.470Z,11.38
2023-12-24T23:26:13.333Z,11.41
2023-12-24T23:28:26.414Z,11.44
2023-12-24T23:30:39.606Z,11.48
2023-12-24T23:32:52.450Z,11.53
2023-12-24T23:35:05.650Z,11.55
2023-12-24T23:37:20.710Z,11.60
2023-12-24T23:39:33.511Z,11.66
2023-12-24T23:41:46.262Z,11.70
2023-12-24T23:43:59.023Z,11.72
2023-12-24T23:46:11.744Z,11.75
2023-12-24T23:48:24.645Z,11.81
2023-12-24T23:50:37.526Z,11.82
2023-12-24T23:52:50.434Z,11.83
2023-12-24T23:55:03.747Z,11.82
2023-12-24T23:57:16.511Z,11.81
2023-12-24T23:59:29.249Z,11.80
